Alaska — SYDS — position and weather

sailwx.info

Track history (hours):
 
Tides and Currents Weather Stations Pressure Air Temp Water Temp Dewpoint Dewpoint Depression Visibility Wind Speed Wind Dir Waves Ship Positions

Alaska

Last reported at 2016-Nov-20 22:24 UTC. Time now 2016-Dec-07 22:09 UTC.
Position N 14°49' W 018°10'.
Warning: this ship's position is 16 days out of date.

Length 274 m; draft 9.2 m.

Type: Tanker. MMSI: 240472000.

Date/timePositionNaut miles runAvg speedWind from/ knotsBaromVisibWave heightAir tempDewpointWater temp
2016-Nov-20 22:24N 14°49' W 018°10'1514.4
2016-Nov-20 21:22N 15°04' W 018°10'  
2016-Nov-18 12:08N 27°51' W 015°07'914.4
2016-Nov-18 11:30N 27°59' W 015°04'2814.3
2016-Nov-18 09:33N 28°25' W 014°53'2914.3
2016-Nov-18 07:33N 28°53' W 014°45'45714.1
2016-Nov-16 23:03N 36°14' W 012°22'1013.8
2016-Nov-16 22:20N 36°24' W 012°19'2814.1
2016-Nov-16 20:21N 36°51' W 012°10'3913.9
2016-Nov-16 17:33N 37°29' W 011°58'1814.3
2016-Nov-16 16:19N 37°46' W 011°52'9714.3
2016-Nov-16 09:33N 39°19' W 011°21'1414.3
2016-Nov-16 08:33N 39°33' W 011°16'7214.3
2016-Nov-16 03:28N 40°44' W 010°52'1314.2
2016-Nov-16 02:33N 40°56' W 010°47'1614.1
2016-Nov-16 01:26N 41°12' W 010°42'42014.0
2016-Nov-14 19:31N 47°37' W 006°50'3015.5
2016-Nov-14 17:33N 48°03' W 006°28'1814.0
2016-Nov-14 16:16N 48°19' W 006°15'5812.4
2016-Nov-14 11:33N 49°05' W 005°19'5114.7
2016-Nov-14 08:06N 49°31' W 004°13'3212.7
2016-Nov-14 05:34N 49°47' W 003°30'7314.5
2016-Nov-14 00:33N 50°12' W 001°44'1717.4
2016-Nov-13 23:33N 50°17' W 001°17'1615.7
2016-Nov-13 22:30N 50°21' W 000°53'3712.6
2016-Nov-13 19:33N 50°31' E 000°03'1212.0
2016-Nov-13 18:33N 50°34' E 000°22'1313.2
2016-Nov-13 17:34N 50°39' E 000°41'3115.4
2016-Nov-13 15:33N 50°57' E 001°21'2813.8
2016-Nov-13 13:33N 51°17' E 001°50'3712.4
2016-Nov-13 10:33N 51°47' E 002°25'6312.5
2016-Nov-13 05:34N 51°59' E 004°05'4 1.8
2016-Nov-13 03:28N 51°56' E 004°10'0 0.0
2016-Nov-12 23:32N 51°56' E 004°10'0 0.0
2016-Nov-12 21:31N 51°56' E 004°10'0 0.0
2016-Nov-12 19:31N 51°56' E 004°10'0 0.0
2016-Nov-12 17:28N 51°56' E 004°10'0 0.0
2016-Nov-12 16:32N 51°56' E 004°10'0 0.0
2016-Nov-12 15:28N 51°56' E 004°10'0 0.0
2016-Nov-12 14:31N 51°56' E 004°10'0 0.0
2016-Nov-12 13:32N 51°56' E 004°10'0 0.0
2016-Nov-12 12:31N 51°56' E 004°10'0 0.0
2016-Nov-12 11:31N 51°56' E 004°10'0 0.0
2016-Nov-12 09:31N 51°56' E 004°10'0 0.0
2016-Nov-12 06:31N 51°56' E 004°10'0 0.0
2016-Nov-12 03:31N 51°56' E 004°10'0 0.0
2016-Nov-12 02:31N 51°56' E 004°10'0 0.0
2016-Nov-12 00:31N 51°56' E 004°10'0 0.0
2016-Nov-11 23:22N 51°56' E 004°10'0 0.0
2016-Nov-11 19:31N 51°56' E 004°10'2 0.5
2016-Nov-11 15:33N 51°58' E 004°07'7 7.3
2016-Nov-11 14:33N 52°01' E 003°57'38 9.5
2016-Nov-11 10:34N 51°57' E 002°55'1312.8
2016-Nov-11 09:33N 51°49' E 002°39'3511.7
2016-Nov-11 06:34N 51°22' E 002°02'1111.3
2016-Nov-11 05:33N 51°14' E 001°50'1010.1
2016-Nov-11 04:33N 51°06' E 001°40'10 9.7
2016-Nov-11 03:33N 50°58' E 001°31'1010.2
2016-Nov-11 02:33N 50°48' E 001°25'  
Track history (hours):
 
Tides and Currents Weather Stations Pressure Air Temp Water Temp Dewpoint Dewpoint Depression Visibility Wind Speed Wind Dir Waves Ship Positions

Alaska

Last reported at 2016-Nov-20 22:24 UTC. Time now 2016-Dec-07 22:09 UTC.
Position N 14°49' W 018°10'.
Warning: this ship's position is 16 days out of date.

Length 274 m; draft 9.2 m.

Type: Tanker. MMSI: 240472000.

Date/timePositionNaut miles runAvg speedWind from/ knotsBaromVisibWave heightAir tempDewpointWater temp
2016-Nov-20 22:24N 14°49' W 018°10'1514.4
2016-Nov-20 21:22N 15°04' W 018°10'  
2016-Nov-18 12:08N 27°51' W 015°07'914.4
2016-Nov-18 11:30N 27°59' W 015°04'2814.3
2016-Nov-18 09:33N 28°25' W 014°53'2914.3
2016-Nov-18 07:33N 28°53' W 014°45'45714.1
2016-Nov-16 23:03N 36°14' W 012°22'1013.8
2016-Nov-16 22:20N 36°24' W 012°19'2814.1
2016-Nov-16 20:21N 36°51' W 012°10'3913.9
2016-Nov-16 17:33N 37°29' W 011°58'1814.3
2016-Nov-16 16:19N 37°46' W 011°52'9714.3
2016-Nov-16 09:33N 39°19' W 011°21'1414.3
2016-Nov-16 08:33N 39°33' W 011°16'7214.3
2016-Nov-16 03:28N 40°44' W 010°52'1314.2
2016-Nov-16 02:33N 40°56' W 010°47'1614.1
2016-Nov-16 01:26N 41°12' W 010°42'42014.0
2016-Nov-14 19:31N 47°37' W 006°50'3015.5
2016-Nov-14 17:33N 48°03' W 006°28'1814.0
2016-Nov-14 16:16N 48°19' W 006°15'5812.4
2016-Nov-14 11:33N 49°05' W 005°19'5114.7
2016-Nov-14 08:06N 49°31' W 004°13'3212.7
2016-Nov-14 05:34N 49°47' W 003°30'7314.5
2016-Nov-14 00:33N 50°12' W 001°44'1717.4
2016-Nov-13 23:33N 50°17' W 001°17'1615.7
2016-Nov-13 22:30N 50°21' W 000°53'3712.6
2016-Nov-13 19:33N 50°31' E 000°03'1212.0
2016-Nov-13 18:33N 50°34' E 000°22'1313.2
2016-Nov-13 17:34N 50°39' E 000°41'3115.4
2016-Nov-13 15:33N 50°57' E 001°21'2813.8
2016-Nov-13 13:33N 51°17' E 001°50'3712.4
2016-Nov-13 10:33N 51°47' E 002°25'6312.5
2016-Nov-13 05:34N 51°59' E 004°05'4 1.8
2016-Nov-13 03:28N 51°56' E 004°10'0 0.0
2016-Nov-12 23:32N 51°56' E 004°10'0 0.0
2016-Nov-12 21:31N 51°56' E 004°10'0 0.0
2016-Nov-12 19:31N 51°56' E 004°10'0 0.0
2016-Nov-12 17:28N 51°56' E 004°10'0 0.0
2016-Nov-12 16:32N 51°56' E 004°10'0 0.0
2016-Nov-12 15:28N 51°56' E 004°10'0 0.0
2016-Nov-12 14:31N 51°56' E 004°10'0 0.0
2016-Nov-12 13:32N 51°56' E 004°10'0 0.0
2016-Nov-12 12:31N 51°56' E 004°10'0 0.0
2016-Nov-12 11:31N 51°56' E 004°10'0 0.0
2016-Nov-12 09:31N 51°56' E 004°10'0 0.0
2016-Nov-12 06:31N 51°56' E 004°10'0 0.0
2016-Nov-12 03:31N 51°56' E 004°10'0 0.0
2016-Nov-12 02:31N 51°56' E 004°10'0 0.0
2016-Nov-12 00:31N 51°56' E 004°10'0 0.0
2016-Nov-11 23:22N 51°56' E 004°10'0 0.0
2016-Nov-11 19:31N 51°56' E 004°10'2 0.5
2016-Nov-11 15:33N 51°58' E 004°07'7 7.3
2016-Nov-11 14:33N 52°01' E 003°57'38 9.5
2016-Nov-11 10:34N 51°57' E 002°55'1312.8
2016-Nov-11 09:33N 51°49' E 002°39'3511.7
2016-Nov-11 06:34N 51°22' E 002°02'1111.3
2016-Nov-11 05:33N 51°14' E 001°50'1010.1
2016-Nov-11 04:33N 51°06' E 001°40'10 9.7
2016-Nov-11 03:33N 50°58' E 001°31'1010.2
2016-Nov-11 02:33N 50°48' E 001°25'  

Dump ship's entire track history